Aérodrome :
LOGIN :

S'inscrire | Disclaimer

   EN    FR    IT 

 










Légende :    VFR   VFR Marginal   IFR   IFR Intensif   IFR Très Intensif
Visi : 
Plafond : 
>= 8 km
>= 3000ft
5 à 8 km
1000 à 3000 ft
1500m à 5 km
500 à 1000 ft
800 à 1500m
200 à 500 ft
< 800m
< 200 ft
Symboles :   Orages  Brouillard  Fortes neiges  Fortes précipitations  Vent > 20 kt
SIGMETs :   Divers  Orages  Givrage  Turbulence  Onde Orograph.  Cendres Volcan.






- Altitude de l'aérodrome : 580 ft


LFOA - Avord

DERNIER METAR :
  • 102200Z AUTO 14002KT CAVOK 25/17 Q1014

METARs EXPIRÉS :
  • 102130Z AUTO 15002KT CAVOK 25/17 Q1014
  • 102100Z AUTO 16003KT CAVOK 26/17 Q1014
  • 102030Z AUTO 18003KT CAVOK 27/17 Q1013
  • 102000Z AUTO 21005KT CAVOK 27/18 Q1013
  • 101930Z AUTO 21005KT CAVOK 27/18 Q1013

TAF TAF LFOA
Valide du 10 à 15h jusqu'au 11 à 15h UTC


101400Z 1015/1115 31008KT CAVOK
PROB40
TEMPO 1015/1103 4000 SHRA BKN070CB
PROB30
TEMPO 1015/1023 VRB25G35KT 2000 TSRA
TEMPO 1107/1109 4000 SHRA BKN070CB



MET'MAP, la Météo Aéronautique d'un coup d'oeil ! - Copyright ORBIFLY Décembre 2007 - Disclaimer

ORBIFLY MET'MAP TEAM :

Programmation & Développement : Alexandra Zaïnal
Sur une idée originale de : Baudouin d'Aumeries
Assistance à la programmation : Marc-Olivier Méhu
Soutien technique & logistique : Manuel Goepfert

Contact : metmap@orbifly.com




SOURCES & CREDITS :

   NOAA